Time;durP1;ratioP1;P1;durP2;ratioP2;P2;SDS_P1;SDS_P2;PMS_P1;PMS_P2;Temp;Humidity;BMP_temperature;BMP_pressure;BME280_temperature;BME280_humidity;BME280_pressure;Samples;Min_cycle;Max_cycle;Signal;HPM_P1;HPM_P2
2023/03/19 00:02:31;;;;;;;6.13;5.63;;;;;;;-142.52;100.00;62712.56;6103609;28;20259;-77
2023/03/19 00:05:54;;;;;;;7.07;4.83;;;;;;;-142.52;100.00;62712.56;6102428;28;20238;-77
2023/03/19 00:09:15;;;;;;;8.00;5.30;;;;;;;-142.52;100.00;62712.56;6127994;28;20234;-77
2023/03/19 00:12:36;;;;;;;7.60;5.13;;;;;;;-142.52;100.00;62712.56;6112810;28;21066;-77
2023/03/19 00:15:57;;;;;;;5.80;5.30;;;;;;;-142.52;100.00;62712.56;6117623;28;20235;-78
2023/03/19 00:19:18;;;;;;;4.40;4.03;;;;;;;-142.52;100.00;62712.56;6131189;28;20230;-77
2023/03/19 00:22:41;;;;;;;5.97;5.37;;;;;;;-142.52;100.00;62712.56;6121498;28;20554;-78
2023/03/19 00:26:02;;;;;;;8.13;6.40;;;;;;;-142.52;100.00;62712.56;6124185;28;20248;-77
2023/03/19 00:29:23;;;;;;;6.50;5.00;;;;;;;-142.52;100.00;62712.56;6124116;28;20235;-78
2023/03/19 00:32:44;;;;;;;5.37;4.97;;;;;;;-142.52;100.00;62712.56;6126798;28;20890;-77
2023/03/19 00:36:06;;;;;;;5.37;4.87;;;;;;;-142.52;100.00;62712.56;6111000;28;20374;-77
2023/03/19 00:39:28;;;;;;;6.57;5.00;;;;;;;-142.52;100.00;62712.56;6112252;28;20265;-78
2023/03/19 00:42:51;;;;;;;4.63;4.23;;;;;;;-142.52;100.00;62712.56;6110260;28;20232;-78
2023/03/19 00:46:12;;;;;;;5.70;5.17;;;;;;;-142.52;100.00;62712.56;6115256;28;20243;-79
2023/03/19 00:49:33;;;;;;;8.67;5.50;;;;;;;-142.52;100.00;62712.56;6116163;28;20232;-78
2023/03/19 00:52:54;;;;;;;5.90;4.97;;;;;;;-142.52;100.00;62712.56;6125649;28;20235;-77
2023/03/19 00:56:17;;;;;;;5.77;4.93;;;;;;;-142.52;100.00;62712.56;6104302;28;20618;-79
2023/03/19 00:59:37;;;;;;;5.43;4.93;;;;;;;-142.52;100.00;62712.56;6126912;28;20617;-79
2023/03/19 01:02:59;;;;;;;5.73;5.30;;;;;;;-142.52;100.00;62712.56;6113725;28;20235;-78
2023/03/19 01:06:19;;;;;;;5.97;4.17;;;;;;;-142.52;100.00;62712.56;6116347;28;20234;-78
2023/03/19 01:09:41;;;;;;;4.90;4.50;;;;;;;-142.52;100.00;62712.56;6118028;28;20468;-78
2023/03/19 01:13:04;;;;;;;4.17;3.83;;;;;;;-142.52;100.00;62712.56;6117276;28;20254;-79
2023/03/19 01:16:27;;;;;;;4.73;4.07;;;;;;;-142.52;100.00;62712.56;6100686;28;20757;-79
2023/03/19 01:19:48;;;;;;;4.90;4.40;;;;;;;-142.52;100.00;62712.56;6111779;28;20231;-79
2023/03/19 01:23:09;;;;;;;4.40;3.87;;;;;;;-142.52;100.00;62712.56;6131316;28;21080;-78
2023/03/19 01:26:30;;;;;;;4.30;4.00;;;;;;;-142.52;100.00;62712.56;6107120;28;20621;-78
2023/03/19 01:30:05;;;;;;;4.33;3.80;;;;;;;-142.52;100.00;62712.56;6106920;28;20239;-78
2023/03/19 01:33:45;;;;;;;4.93;4.17;;;;;;;-142.52;100.00;62712.56;6127817;28;21025;-79
2023/03/19 01:37:21;;;;;;;3.50;3.20;;;;;;;-142.52;100.00;62712.56;6103009;28;20235;-79
2023/03/19 01:40:46;;;;;;;4.23;3.87;;;;;;;-142.52;100.00;62712.56;6109517;28;20270;-80
2023/03/19 01:44:26;;;;;;;5.57;4.07;;;;;;;-142.52;100.00;62712.56;6104840;28;20619;-79
2023/03/19 01:48:19;;;;;;;3.10;2.90;;;;;;;-142.52;100.00;62712.56;6124548;28;20283;-79
2023/03/19 01:51:55;;;;;;;2.93;2.73;;;;;;;-142.52;100.00;62712.56;6098972;28;20231;-79
2023/03/19 01:55:31;;;;;;;5.00;4.60;;;;;;;-142.52;100.00;62712.56;6120326;28;20240;-78
2023/03/19 01:59:08;;;;;;;3.47;3.17;;;;;;;-142.52;100.00;62712.56;6114160;28;20226;-77
2023/03/19 02:02:52;;;;;;;3.03;2.83;;;;;;;-142.52;100.00;62712.56;6102031;28;20235;-78
2023/03/19 02:06:41;;;;;;;3.80;3.43;;;;;;;-142.52;100.00;62712.56;6115663;28;20231;-77
2023/03/19 02:10:07;;;;;;;4.10;2.50;;;;;;;-142.52;100.00;62712.56;6116576;28;20598;-78
2023/03/19 02:13:28;;;;;;;3.70;3.40;;;;;;;-142.52;100.00;62712.56;6129234;28;20239;-78
2023/03/19 02:16:50;;;;;;;2.97;2.77;;;;;;;-142.52;100.00;62712.56;6105270;28;20236;-78
2023/03/19 02:20:16;;;;;;;3.07;2.87;;;;;;;-142.52;100.00;62712.56;6101682;28;20267;-80
2023/03/19 02:23:47;;;;;;;4.17;2.70;;;;;;;-142.52;100.00;62712.56;6110599;28;20227;-78
2023/03/19 02:27:12;;;;;;;3.50;2.60;;;;;;;-142.52;100.00;62712.56;6117101;28;20854;-78
2023/03/19 02:30:38;;;;;;;7.73;3.73;;;;;;;-142.52;100.00;62712.56;6103781;28;20243;-78
2023/03/19 02:34:05;;;;;;;2.10;2.00;;;;;;;-142.52;100.00;62712.56;6117544;28;20227;-78
2023/03/19 02:37:30;;;;;;;2.57;2.37;;;;;;;-142.52;100.00;62712.56;6109980;28;20239;-78
2023/03/19 02:40:54;;;;;;;3.03;2.77;;;;;;;-142.52;100.00;62712.56;6104585;28;20250;-78
2023/03/19 02:44:18;;;;;;;3.53;3.23;;;;;;;-142.52;100.00;62712.56;6119560;28;20519;-78
2023/03/19 02:47:39;;;;;;;3.17;2.93;;;;;;;-142.52;100.00;62712.56;6103916;28;20255;-78
2023/03/19 02:51:01;;;;;;;3.63;3.33;;;;;;;-142.52;100.00;62712.56;6108469;28;20829;-80
2023/03/19 02:54:21;;;;;;;2.07;1.90;;;;;;;-142.52;100.00;62712.56;6129986;28;20241;-78
2023/03/19 02:57:43;;;;;;;3.53;2.67;;;;;;;-142.52;100.00;62712.56;6105393;29;21579;-78
2023/03/19 03:01:06;;;;;;;2.37;2.17;;;;;;;-142.52;100.00;62712.56;6108456;28;20230;-78
2023/03/19 03:04:28;;;;;;;3.13;2.80;;;;;;;-142.52;100.00;62712.56;6120816;28;20239;-78
2023/03/19 03:07:49;;;;;;;3.23;2.70;;;;;;;-142.52;100.00;62712.56;6101409;28;20224;-77
2023/03/19 03:11:11;;;;;;;3.93;3.27;;;;;;;-142.52;100.00;62712.56;6107190;28;20239;-78
2023/03/19 03:14:31;;;;;;;3.20;2.90;;;;;;;-142.52;100.00;62712.56;6116532;28;20235;-78
2023/03/19 03:17:55;;;;;;;2.70;2.47;;;;;;;-142.52;100.00;62712.56;6123249;28;20247;-78
2023/03/19 03:21:18;;;;;;;2.57;2.37;;;;;;;-142.52;100.00;62712.56;6112687;28;20238;-78
2023/03/19 03:24:40;;;;;;;2.63;2.03;;;;;;;-142.52;100.00;62712.56;6114047;28;20519;-78
2023/03/19 03:28:00;;;;;;;3.13;2.87;;;;;;;-142.52;100.00;62712.56;6117956;28;20531;-77
2023/03/19 03:31:22;;;;;;;3.30;2.60;;;;;;;-142.52;100.00;62712.56;6119608;28;20227;-78
2023/03/19 03:34:46;;;;;;;2.07;1.97;;;;;;;-142.52;100.00;62712.56;6128758;28;20235;-77
2023/03/19 03:38:07;;;;;;;4.40;2.50;;;;;;;-142.52;100.00;62712.56;6125632;28;20251;-77
2023/03/19 03:41:28;;;;;;;3.37;3.13;;;;;;;-142.52;100.00;62712.56;6107918;28;20516;-77
2023/03/19 03:44:49;;;;;;;2.27;2.07;;;;;;;-142.52;100.00;62712.56;6113813;28;21532;-78
2023/03/19 03:48:10;;;;;;;2.87;2.60;;;;;;;-142.52;100.00;62712.56;6130455;28;20227;-78
2023/03/19 03:51:32;;;;;;;3.00;2.33;;;;;;;-142.52;100.00;62712.56;6121179;28;22199;-78
2023/03/19 03:54:54;;;;;;;3.00;2.80;;;;;;;-142.52;100.00;62712.56;6114911;28;20235;-77
2023/03/19 03:58:15;;;;;;;2.47;2.07;;;;;;;-142.52;100.00;62712.56;6117861;28;20235;-77
2023/03/19 04:01:36;;;;;;;2.03;1.93;;;;;;;-142.52;100.00;62712.56;6100969;28;20299;-77
2023/03/19 04:04:57;;;;;;;3.43;3.13;;;;;;;-142.52;100.00;62712.56;6103857;28;20512;-78
2023/03/19 04:08:19;;;;;;;2.20;2.00;;;;;;;-142.52;100.00;62712.56;6111477;28;20251;-78
2023/03/19 04:11:41;;;;;;;2.93;2.70;;;;;;;-142.52;100.00;62712.56;6102930;28;20843;-78
2023/03/19 04:15:04;;;;;;;2.40;2.20;;;;;;;-142.52;100.00;62712.56;6102660;28;20235;-77
2023/03/19 04:18:25;;;;;;;2.40;2.13;;;;;;;-142.52;100.00;62712.56;6102795;28;20231;-77
2023/03/19 04:21:46;;;;;;;3.13;2.47;;;;;;;-142.52;100.00;62712.56;6104374;28;20231;-77
2023/03/19 04:25:10;;;;;;;2.70;2.50;;;;;;;-142.52;100.00;62712.56;6099212;28;20338;-77
2023/03/19 04:28:32;;;;;;;4.67;2.10;;;;;;;-142.52;100.00;62712.56;6136270;28;21756;-78
2023/03/19 04:31:55;;;;;;;1.57;1.43;;;;;;;-142.52;100.00;62712.56;6118893;28;21016;-78
2023/03/19 04:35:17;;;;;;;1.93;1.70;;;;;;;-142.52;100.00;62712.56;6110061;28;20347;-78
2023/03/19 04:38:38;;;;;;;7.53;1.83;;;;;;;-142.52;100.00;62712.56;6114869;28;22246;-78
2023/03/19 04:42:00;;;;;;;2.27;2.07;;;;;;;-142.52;100.00;62712.56;6100235;28;20247;-78
2023/03/19 04:45:30;;;;;;;2.30;2.20;;;;;;;-142.52;100.00;62712.56;6117431;28;20538;-77
2023/03/19 04:48:51;;;;;;;1.87;1.77;;;;;;;-142.52;100.00;62712.56;6117345;28;20333;-77
2023/03/19 04:52:12;;;;;;;2.20;2.00;;;;;;;-142.52;100.00;62712.56;6105896;28;20231;-78
2023/03/19 04:55:33;;;;;;;2.50;2.30;;;;;;;-142.52;100.00;62712.56;6110604;28;20231;-78
2023/03/19 04:59:03;;;;;;;3.53;2.70;;;;;;;-142.52;100.00;62712.56;6111484;28;20262;-77
2023/03/19 05:02:25;;;;;;;3.40;3.10;;;;;;;-142.52;100.00;62712.56;6110479;28;20246;-76
2023/03/19 05:05:48;;;;;;;3.33;3.10;;;;;;;-142.52;100.00;62712.56;6105152;28;20625;-77
2023/03/19 05:09:10;;;;;;;3.27;3.03;;;;;;;-142.52;100.00;62712.56;6116440;28;20302;-77
2023/03/19 05:12:31;;;;;;;2.97;2.73;;;;;;;-142.52;100.00;62712.56;6103556;28;20239;-78
2023/03/19 05:15:55;;;;;;;2.87;2.67;;;;;;;-142.52;100.00;62712.56;6103467;28;20638;-77
2023/03/19 05:19:17;;;;;;;4.03;3.47;;;;;;;-142.52;100.00;62712.56;6117102;28;20247;-78
2023/03/19 05:22:37;;;;;;;2.90;2.60;;;;;;;-142.52;100.00;62712.56;6104877;28;20556;-78
2023/03/19 05:25:59;;;;;;;3.33;3.03;;;;;;;-142.52;100.00;62712.56;6112852;28;20234;-78
2023/03/19 05:29:41;;;;;;;6.17;3.43;;;;;;;-142.52;100.00;62712.56;6121067;28;20274;-79
2023/03/19 05:33:13;;;;;;;3.00;2.57;;;;;;;-142.52;100.00;62712.56;6116262;28;20247;-78
2023/03/19 05:36:36;;;;;;;4.97;2.53;;;;;;;-142.52;100.00;62712.56;6105883;28;20244;-77
2023/03/19 05:40:02;;;;;;;4.50;4.10;;;;;;;-142.52;100.00;62712.56;6105712;28;20740;-77
2023/03/19 05:43:24;;;;;;;2.70;2.47;;;;;;;-142.52;100.00;62712.56;6113984;28;20227;-78
2023/03/19 05:46:47;;;;;;;3.37;3.07;;;;;;;-142.52;100.00;62712.56;6108827;28;20239;-78
2023/03/19 05:50:11;;;;;;;3.50;2.93;;;;;;;-142.52;100.00;62712.56;6111175;28;20269;-78
2023/03/19 05:53:36;;;;;;;3.70;3.40;;;;;;;-142.52;100.00;62712.56;6121681;28;20243;-77
2023/03/19 05:57:19;;;;;;;3.00;2.70;;;;;;;-142.52;100.00;62712.56;6110678;28;20224;-79
2023/03/19 06:00:58;;;;;;;2.87;2.67;;;;;;;-142.52;100.00;62712.56;6111222;28;20637;-79
2023/03/19 06:04:19;;;;;;;4.23;3.83;;;;;;;-142.52;100.00;62712.56;6119709;28;20451;-78
2023/03/19 06:07:44;;;;;;;3.70;3.40;;;;;;;-142.52;100.00;62712.56;6117883;28;20329;-78
2023/03/19 06:11:14;;;;;;;5.13;2.70;;;;;;;-142.52;100.00;62712.56;6096008;28;20552;-78
2023/03/19 06:14:36;;;;;;;3.03;2.73;;;;;;;-142.52;100.00;62712.56;6117573;28;20236;-77
2023/03/19 06:18:19;;;;;;;5.70;3.77;;;;;;;-142.52;100.00;62712.56;6100842;28;20247;-76
2023/03/19 06:21:40;;;;;;;3.30;3.03;;;;;;;-142.52;100.00;62712.56;6098842;28;20227;-79
2023/03/19 06:25:02;;;;;;;3.30;3.10;;;;;;;-142.52;100.00;62712.56;6103931;28;20231;-77
2023/03/19 06:28:26;;;;;;;3.80;3.50;;;;;;;-142.52;100.00;62712.56;6116446;28;20238;-77
2023/03/19 06:31:47;;;;;;;3.40;3.10;;;;;;;-142.52;100.00;62712.56;6102727;28;20231;-77
2023/03/19 06:35:26;;;;;;;3.67;3.30;;;;;;;-142.52;100.00;62712.56;6104484;28;20235;-78
2023/03/19 06:38:48;;;;;;;2.60;2.40;;;;;;;-142.52;100.00;62712.56;6113925;28;20416;-77
2023/03/19 06:42:10;;;;;;;3.40;3.00;;;;;;;-142.52;100.00;62712.56;6120019;28;20716;-77
2023/03/19 06:45:31;;;;;;;3.73;3.43;;;;;;;-142.52;100.00;62712.56;6114929;28;20235;-78
2023/03/19 06:48:53;;;;;;;7.87;4.00;;;;;;;-142.52;100.00;62712.56;6126659;28;21738;-78
2023/03/19 06:52:13;;;;;;;3.77;3.47;;;;;;;-142.52;100.00;62712.56;6111194;28;20366;-76
2023/03/19 06:55:36;;;;;;;2.53;2.20;;;;;;;-142.52;100.00;62712.56;6116169;28;20227;-77
2023/03/19 06:58:58;;;;;;;3.43;3.00;;;;;;;-142.52;100.00;62712.56;6131159;28;20236;-77
2023/03/19 07:02:19;;;;;;;4.33;4.03;;;;;;;-142.52;100.00;62712.56;6085774;28;20235;-77
2023/03/19 07:05:40;;;;;;;3.07;2.30;;;;;;;-142.52;100.00;62712.56;6123533;28;20231;-77
2023/03/19 07:09:02;;;;;;;4.17;3.17;;;;;;;-142.52;100.00;62712.56;6101724;28;20621;-77
2023/03/19 07:12:26;;;;;;;5.50;4.57;;;;;;;-142.52;100.00;62712.56;6086806;28;20239;-78
2023/03/19 07:15:51;;;;;;;3.43;3.17;;;;;;;-142.52;100.00;62712.56;6092779;28;20240;-79
2023/03/19 07:19:15;;;;;;;4.20;3.90;;;;;;;-142.52;100.00;62712.56;6108715;28;20243;-77
2023/03/19 07:22:36;;;;;;;3.60;3.30;;;;;;;-142.52;100.00;62712.56;6118130;28;20231;-76
2023/03/19 07:25:59;;;;;;;2.90;2.70;;;;;;;-142.52;100.00;62712.56;6118895;28;20254;-77
2023/03/19 07:29:20;;;;;;;4.03;3.63;;;;;;;-142.52;100.00;62712.56;6125130;28;20632;-77
2023/03/19 07:32:42;;;;;;;3.90;3.50;;;;;;;-142.52;100.00;62712.56;6112011;28;20227;-77
2023/03/19 07:36:03;;;;;;;3.00;2.73;;;;;;;-142.52;100.00;62712.56;6113456;28;20681;-77
2023/03/19 07:39:24;;;;;;;4.80;3.47;;;;;;;-142.52;100.00;62712.56;6114982;28;20247;-72
2023/03/19 07:42:45;;;;;;;3.90;3.40;;;;;;;-142.52;100.00;62712.56;6103382;28;20235;-73
2023/03/19 07:46:06;;;;;;;3.77;3.57;;;;;;;-142.52;100.00;62712.56;6113250;28;20665;-75
2023/03/19 07:49:29;;;;;;;4.43;3.80;;;;;;;-142.52;100.00;62712.56;6129410;28;20301;-73
2023/03/19 07:52:50;;;;;;;4.37;3.70;;;;;;;-142.52;100.00;62712.56;6118448;28;20231;-73
2023/03/19 07:56:12;;;;;;;4.33;3.93;;;;;;;-142.52;100.00;62712.56;6115788;28;20240;-75
2023/03/19 07:59:33;;;;;;;3.53;3.23;;;;;;;-142.52;100.00;62712.56;6127991;28;20477;-75
2023/03/19 08:02:53;;;;;;;3.90;3.53;;;;;;;-142.52;100.00;62712.56;6105744;28;21445;-75
2023/03/19 08:06:16;;;;;;;4.30;3.97;;;;;;;-142.52;100.00;62712.56;6120611;28;20665;-75
2023/03/19 08:09:37;;;;;;;4.40;4.03;;;;;;;-142.52;100.00;62712.56;6127599;28;20632;-75
2023/03/19 08:12:58;;;;;;;4.43;3.10;;;;;;;-142.52;100.00;62712.56;6104244;28;20235;-74
2023/03/19 08:16:18;;;;;;;3.23;3.00;;;;;;;-142.52;100.00;62712.56;6101298;28;20247;-80
2023/03/19 08:19:39;;;;;;;3.63;3.27;;;;;;;-142.52;100.00;62712.56;6132391;28;20238;-72
2023/03/19 08:23:01;;;;;;;12.27;9.33;;;;;;;-142.52;100.00;62712.56;6129784;28;20566;-69
2023/03/19 08:26:22;;;;;;;16.23;4.83;;;;;;;-142.52;100.00;62712.56;6124636;28;20235;-74
2023/03/19 08:29:43;;;;;;;8.10;7.17;;;;;;;-142.52;100.00;62712.56;6138778;28;20231;-71
2023/03/19 08:33:04;;;;;;;21.20;18.73;;;;;;;-142.52;100.00;62712.56;6146263;28;20322;-69
2023/03/19 08:36:25;;;;;;;41.80;38.17;;;;;;;-142.52;100.00;62712.56;6092679;28;20235;-74
2023/03/19 08:39:47;;;;;;;7.70;6.63;;;;;;;-142.52;100.00;62712.56;6134081;28;20668;-80
2023/03/19 08:43:08;;;;;;;4.73;4.33;;;;;;;-142.52;100.00;62712.56;6136519;28;20322;-80
2023/03/19 08:46:29;;;;;;;3.47;2.83;;;;;;;-142.52;100.00;62712.56;6119113;28;20332;-79
2023/03/19 08:49:50;;;;;;;4.90;4.23;;;;;;;-142.52;100.00;62712.56;6126738;28;20223;-81
2023/03/19 08:53:11;;;;;;;2.90;2.70;;;;;;;-142.52;100.00;62712.56;6138396;28;20246;-79
2023/03/19 08:56:34;;;;;;;4.27;3.17;;;;;;;-142.52;100.00;62712.56;6125144;28;20295;-80
2023/03/19 08:59:55;;;;;;;5.30;3.03;;;;;;;-142.52;100.00;62712.56;6141986;28;20513;-82
2023/03/19 09:03:17;;;;;;;2.47;2.27;;;;;;;-142.52;100.00;62712.56;6130897;28;20563;-80
2023/03/19 09:06:38;;;;;;;4.43;3.03;;;;;;;-142.52;100.00;62712.56;6116536;28;20254;-78
2023/03/19 09:09:59;;;;;;;3.50;3.20;;;;;;;-142.52;100.00;62712.56;6132277;28;20231;-81
2023/03/19 09:13:21;;;;;;;3.10;2.87;;;;;;;-142.52;100.00;62712.56;6142587;28;20261;-78
2023/03/19 09:16:43;;;;;;;3.97;3.10;;;;;;;-142.52;100.00;62712.56;6111635;28;20247;-77
2023/03/19 09:20:06;;;;;;;2.60;2.33;;;;;;;-142.52;100.00;62712.56;6126175;28;20310;-65
2023/03/19 09:23:27;;;;;;;3.90;3.07;;;;;;;-142.52;100.00;62712.56;6135103;28;20219;-67
2023/03/19 09:26:48;;;;;;;2.63;2.27;;;;;;;-142.52;100.00;62712.56;6112063;28;20322;-65
2023/03/19 09:30:12;;;;;;;2.93;2.73;;;;;;;-142.52;100.00;62712.56;6116333;28;21509;-65
2023/03/19 09:33:33;;;;;;;2.77;2.57;;;;;;;-142.52;100.00;62712.56;6115927;28;20231;-65
2023/03/19 09:36:54;;;;;;;4.13;3.73;;;;;;;-142.52;100.00;62712.56;6122982;28;20239;-67
2023/03/19 09:40:22;;;;;;;3.10;2.80;;;;;;;-142.52;100.00;62712.56;6115355;28;20326;-66
2023/03/19 09:43:58;;;;;;;2.27;2.07;;;;;;;-142.52;100.00;62712.56;6124521;28;20566;-67
2023/03/19 09:47:31;;;;;;;4.63;3.03;;;;;;;-142.52;100.00;62712.56;6107384;28;20572;-66
2023/03/19 09:50:52;;;;;;;2.43;2.23;;;;;;;-142.52;100.00;62712.56;6113950;28;20791;-66
2023/03/19 09:54:26;;;;;;;2.73;2.47;;;;;;;-142.52;100.00;62712.56;6110336;28;20235;-66
2023/03/19 09:57:48;;;;;;;2.50;2.30;;;;;;;-142.52;100.00;62712.56;6085842;28;20262;-67
2023/03/19 10:01:24;;;;;;;5.67;2.03;;;;;;;-142.52;100.00;62712.56;6088216;28;20535;-73
2023/03/19 10:04:57;;;;;;;4.60;2.43;;;;;;;-142.52;100.00;62712.56;6105595;28;20239;-73
2023/03/19 10:08:35;;;;;;;2.83;2.00;;;;;;;-142.52;100.00;62712.56;6109131;28;20532;-72
2023/03/19 10:12:11;;;;;;;3.17;2.88;;;;;;;-142.52;100.00;62712.56;6090776;28;20232;-74
2023/03/19 10:15:33;;;;;;;2.35;2.13;;;;;;;-142.52;100.00;62712.56;6124223;28;20235;-73
2023/03/19 10:18:57;;;;;;;3.00;2.65;;;;;;;-142.52;100.00;62712.56;6138766;28;20239;-72
2023/03/19 10:22:24;;;;;;;2.37;2.17;;;;;;;-142.52;100.00;62712.56;6115227;28;20236;-73
2023/03/19 10:25:46;;;;;;;2.47;2.38;;;;;;;-142.52;100.00;62712.56;6119405;28;20231;-73
2023/03/19 10:29:09;;;;;;;2.90;2.58;;;;;;;-142.52;100.00;62712.56;6134537;28;20235;-72
2023/03/19 10:32:41;;;;;;;2.03;1.77;;;;;;;-142.52;100.00;62712.56;6118196;28;20240;-73
2023/03/19 10:36:07;;;;;;;2.67;2.10;;;;;;;-142.52;100.00;62712.56;6124978;28;20545;-74
2023/03/19 10:39:32;;;;;;;2.65;1.58;;;;;;;-142.52;100.00;62712.56;6105785;28;20262;-72
2023/03/19 10:43:06;;;;;;;1.98;1.88;;;;;;;-142.52;100.00;62712.56;6114291;28;20279;-73
2023/03/19 10:46:27;;;;;;;2.40;2.10;;;;;;;-142.52;100.00;62712.56;6123209;28;20578;-73
2023/03/19 10:49:50;;;;;;;3.08;2.88;;;;;;;-142.52;100.00;62712.56;6135716;28;20243;-72
2023/03/19 10:53:28;;;;;;;4.03;2.25;;;;;;;-142.52;100.00;62712.56;6132206;28;20632;-73
2023/03/19 10:56:54;;;;;;;2.13;1.50;;;;;;;-142.52;100.00;62712.56;6123377;28;20255;-73
2023/03/19 11:00:20;;;;;;;2.35;1.75;;;;;;;-142.52;100.00;62712.56;6121439;28;20641;-72
2023/03/19 11:03:50;;;;;;;1.65;1.55;;;;;;;-142.52;100.00;62712.56;6136043;28;21175;-73
2023/03/19 11:07:13;;;;;;;1.58;1.48;;;;;;;-142.52;100.00;62712.56;6121930;28;20235;-73
2023/03/19 11:10:35;;;;;;;1.88;1.73;;;;;;;-142.52;100.00;62712.56;6126923;28;20326;-73
2023/03/19 11:13:58;;;;;;;1.23;1.13;;;;;;;-142.52;100.00;62712.56;6133596;28;20238;-73
2023/03/19 11:17:24;;;;;;;1.90;1.70;;;;;;;-142.52;100.00;62712.56;6129182;28;20351;-73
2023/03/19 11:20:53;;;;;;;1.95;1.48;;;;;;;-142.52;100.00;62712.56;6123011;28;20562;-73
2023/03/19 11:24:14;;;;;;;1.95;1.77;;;;;;;-142.52;100.00;62712.56;6132425;28;20226;-72
2023/03/19 11:27:35;;;;;;;2.65;1.58;;;;;;;-142.52;100.00;62712.56;6099069;28;20586;-74
2023/03/19 11:31:03;;;;;;;1.75;1.60;;;;;;;-142.52;100.00;62712.56;6125426;28;20669;-73
2023/03/19 11:34:37;;;;;;;1.52;1.42;;;;;;;-142.52;100.00;62712.56;6129671;28;20231;-72
2023/03/19 11:37:59;;;;;;;1.60;1.35;;;;;;;-142.52;100.00;62712.56;6109730;28;20235;-73
2023/03/19 11:41:30;;;;;;;2.22;1.98;;;;;;;-142.52;100.00;62712.56;6103372;28;20239;-73
2023/03/19 11:45:02;;;;;;;1.67;1.58;;;;;;;-142.52;100.00;62712.56;6119924;28;20231;-73
2023/03/19 11:48:39;;;;;;;4.55;1.77;;;;;;;-142.52;100.00;62712.56;6120145;28;20743;-73
2023/03/19 11:52:08;;;;;;;1.60;1.50;;;;;;;-142.52;100.00;62712.56;6096590;28;20235;-74
2023/03/19 11:55:37;;;;;;;2.25;1.90;;;;;;;-142.52;100.00;62712.56;6125010;28;20254;-74
2023/03/19 11:59:24;;;;;;;1.67;1.55;;;;;;;-142.52;100.00;62712.56;6129528;28;20226;-72
2023/03/19 12:03:09;;;;;;;3.83;2.08;;;;;;;-142.52;100.00;62712.56;6113760;28;20509;-73
2023/03/19 12:06:40;;;;;;;1.98;1.83;;;;;;;-142.52;100.00;62712.56;6108649;28;20231;-71
2023/03/19 12:10:20;;;;;;;1.80;1.70;;;;;;;-142.52;100.00;62712.56;6118726;28;20239;-71
2023/03/19 12:13:54;;;;;;;1.90;1.15;;;;;;;-142.52;100.00;62712.56;6133110;28;20250;-72
2023/03/19 12:17:33;;;;;;;2.27;1.40;;;;;;;-142.52;100.00;62712.56;6121007;28;20309;-73
2023/03/19 12:21:01;;;;;;;1.13;1.13;;;;;;;-142.52;100.00;62712.56;6129010;28;20239;-72
2023/03/19 12:24:33;;;;;;;2.20;2.03;;;;;;;-142.52;100.00;62712.56;6121994;28;20325;-72
2023/03/19 12:28:00;;;;;;;3.17;1.85;;;;;;;-142.52;100.00;62712.56;6125836;28;20623;-71
2023/03/19 12:31:40;;;;;;;2.23;2.13;;;;;;;-142.52;100.00;62712.56;6120709;28;20243;-69
2023/03/19 12:35:04;;;;;;;2.40;2.20;;;;;;;-142.52;100.00;62712.56;6101450;28;20321;-70
2023/03/19 12:38:39;;;;;;;2.93;2.07;;;;;;;-142.52;100.00;62712.56;6096396;28;20223;-70
2023/03/19 12:42:05;;;;;;;4.17;2.20;;;;;;;-142.52;100.00;62712.56;6103847;28;21852;-70
2023/03/19 12:45:31;;;;;;;3.50;3.30;;;;;;;-142.52;100.00;62712.56;6114088;28;20244;-70
2023/03/19 12:48:57;;;;;;;3.40;3.20;;;;;;;-142.52;100.00;62712.56;6111936;28;20235;-68
2023/03/19 12:52:22;;;;;;;3.38;2.90;;;;;;;-142.52;100.00;62712.56;6104468;28;20235;-70
2023/03/19 12:55:49;;;;;;;2.72;2.53;;;;;;;-142.52;100.00;62712.56;6104580;28;20322;-70
2023/03/19 12:59:23;;;;;;;2.38;2.17;;;;;;;-142.52;100.00;62712.56;6120372;28;20227;-70
2023/03/19 13:02:50;;;;;;;2.72;2.10;;;;;;;-142.52;100.00;62712.56;6094641;28;20238;-69
2023/03/19 13:06:19;;;;;;;3.15;1.83;;;;;;;-142.52;100.00;62712.56;6106428;28;20266;-66
2023/03/19 13:09:46;;;;;;;2.97;2.00;;;;;;;-142.52;100.00;62712.56;6113156;28;20234;-68
2023/03/19 13:13:22;;;;;;;3.15;2.20;;;;;;;-142.52;100.00;62712.56;6118538;28;20589;-67
2023/03/19 13:16:52;;;;;;;3.50;1.80;;;;;;;-142.52;100.00;62712.56;6118212;28;20244;-68
2023/03/19 13:20:20;;;;;;;2.90;1.25;;;;;;;-142.52;100.00;62712.56;6127821;28;20246;-66
2023/03/19 13:23:44;;;;;;;2.95;1.48;;;;;;;-142.52;100.00;62712.56;6134787;28;20235;-68
2023/03/19 13:27:08;;;;;;;3.42;1.63;;;;;;;-142.52;100.00;62712.56;6120924;28;20235;-67
2023/03/19 13:30:30;;;;;;;2.58;1.13;;;;;;;-142.52;100.00;62712.56;6123390;28;20764;-69
2023/03/19 13:34:00;;;;;;;1.73;1.63;;;;;;;-142.52;100.00;62712.56;6128998;28;20235;-69
2023/03/19 13:37:23;;;;;;;3.20;2.20;;;;;;;-142.52;100.00;62712.56;6123127;28;20231;-67
2023/03/19 13:40:47;;;;;;;4.15;2.15;;;;;;;-142.52;100.00;62712.56;6119770;28;20265;-67
2023/03/19 13:44:28;;;;;;;6.78;2.70;;;;;;;-142.52;100.00;62712.56;6133223;28;20224;-66
2023/03/19 13:47:50;;;;;;;4.18;2.65;;;;;;;-142.52;100.00;62712.56;6119761;28;20544;-67
2023/03/19 13:51:25;;;;;;;4.72;2.40;;;;;;;-142.52;100.00;62712.56;6124732;28;20665;-68
2023/03/19 13:54:46;;;;;;;4.30;3.23;;;;;;;-142.52;100.00;62712.56;6134641;28;20260;-70
2023/03/19 13:58:48;;;;;;;2.20;1.97;;;;;;;-142.52;100.00;62712.56;6135488;28;20223;-68
2023/03/19 14:01:59;;;;;;;1.80;1.70;;;;;;;-142.52;100.00;62712.56;6116140;28;20625;-69
2023/03/19 14:05:21;;;;;;;2.83;2.10;;;;;;;-142.52;100.00;62712.56;6112310;28;20502;-68
2023/03/19 14:08:46;;;;;;;5.87;2.07;;;;;;;-142.52;100.00;62712.56;6124481;28;20227;-66
2023/03/19 14:12:19;;;;;;;2.97;2.67;;;;;;;-142.52;100.00;62712.56;6127735;28;20600;-68
2023/03/19 14:15:48;;;;;;;2.53;2.33;;;;;;;-142.52;100.00;62712.56;6123371;28;20235;-67
2023/03/19 14:19:12;;;;;;;2.43;1.57;;;;;;;-142.52;100.00;62712.56;6123266;28;20223;-68
2023/03/19 14:22:37;;;;;;;3.23;2.13;;;;;;;-142.52;100.00;62712.56;6105694;28;20243;-68
2023/03/19 14:26:11;;;;;;;2.40;2.20;;;;;;;-142.52;100.00;62712.56;6120018;28;20250;-68
2023/03/19 14:29:35;;;;;;;3.90;2.13;;;;;;;-142.52;100.00;62712.56;6134134;28;20239;-68
2023/03/19 14:32:59;;;;;;;2.03;1.93;;;;;;;-142.52;100.00;62712.56;6119443;28;21996;-68
2023/03/19 14:36:21;;;;;;;2.97;2.37;;;;;;;-142.52;100.00;62712.56;6116613;28;20227;-68
2023/03/19 14:39:44;;;;;;;2.07;1.93;;;;;;;-142.52;100.00;62712.56;6134264;28;20230;-69
2023/03/19 14:43:17;;;;;;;3.33;2.90;;;;;;;-142.52;100.00;62712.56;6129175;28;20315;-69
2023/03/19 14:46:52;;;;;;;2.63;2.00;;;;;;;-142.52;100.00;62712.56;6117476;28;20238;-68
2023/03/19 14:50:32;;;;;;;3.17;2.33;;;;;;;-142.52;100.00;62712.56;6123733;28;20246;-69
2023/03/19 14:53:57;;;;;;;3.80;3.27;;;;;;;-142.52;100.00;62712.56;6131455;28;20230;-68
2023/03/19 14:57:19;;;;;;;3.53;3.03;;;;;;;-142.52;100.00;62712.56;6112985;28;20871;-68
2023/03/19 15:03:28;;;;;;;4.10;3.75;;;;;;;17.82;56.93;101280.06;6283115;27;20251;-68
2023/03/19 15:06:53;;;;;;;3.80;3.00;;;;;;;16.59;60.66;101281.09;6254819;28;20255;-68
2023/03/19 15:10:17;;;;;;;5.20;4.47;;;;;;;16.31;62.14;101288.31;6241389;28;20313;-68
2023/03/19 15:13:53;;;;;;;5.37;4.23;;;;;;;15.95;63.88;101289.28;6272981;28;20227;-69
2023/03/19 15:17:22;;;;;;;3.20;2.90;;;;;;;15.24;62.21;101295.53;6231526;28;20227;-69
2023/03/19 15:20:47;;;;;;;4.07;2.93;;;;;;;15.01;64.08;101296.50;6243474;28;20242;-69
2023/03/19 15:24:15;;;;;;;4.83;3.90;;;;;;;15.27;62.01;101298.63;6256124;28;20573;-68
2023/03/19 15:27:36;;;;;;;3.73;3.43;;;;;;;15.24;62.75;101295.53;6232633;28;20231;-67
2023/03/19 15:31:00;;;;;;;5.00;4.53;;;;;;;15.29;63.45;101299.28;6231382;28;20236;-65
2023/03/19 15:34:22;;;;;;;3.27;2.97;;;;;;;15.34;61.94;101304.03;6249252;28;20228;-63
2023/03/19 15:37:50;;;;;;;6.77;4.87;;;;;;;15.77;62.20;101306.75;6254753;28;20533;-63